Time;durP1;ratioP1;P1;durP2;ratioP2;P2;SDS_P1;SDS_P2;PMS_P1;PMS_P2;Temp;Humidity;BMP_temperature;BMP_pressure;BME280_temperature;BME280_humidity;BME280_pressure;Samples;Min_cycle;Max_cycle;Signal;HPM_P1;HPM_P2
2022/01/03 00:01:39;;;;;;;88.60;17.63;;;;;;;5.19;100.00;100345.38;5062014;28;20203;-75
2022/01/03 00:04:07;;;;;;;135.93;17.77;;;;;;;5.33;100.00;100337.41;5052078;28;20199;-76
2022/01/03 00:06:35;;;;;;;116.17;19.20;;;;;;;5.37;100.00;100334.16;5052334;28;20222;-75
2022/01/03 00:09:04;;;;;;;106.03;15.93;;;;;;;5.44;100.00;100323.28;5051904;28;20202;-75
2022/01/03 00:11:31;;;;;;;109.33;15.67;;;;;;;5.44;100.00;100327.56;5051988;28;20697;-75
2022/01/03 00:13:57;;;;;;;84.33;14.03;;;;;;;5.29;100.00;100312.41;5053171;28;20210;-75
2022/01/03 00:16:25;;;;;;;124.50;16.10;;;;;;;5.05;100.00;100290.00;5058247;28;20210;-75
2022/01/03 00:18:53;;;;;;;84.53;16.43;;;;;;;5.14;100.00;100311.78;5072011;28;20226;-75
2022/01/03 00:21:29;;;;;;;89.83;17.50;;;;;;;5.16;100.00;100301.59;5071529;28;20237;-76
2022/01/03 00:24:06;;;;;;;145.77;18.93;;;;;;;5.22;100.00;100300.13;5059980;28;20750;-78
2022/01/03 00:26:35;;;;;;;114.00;16.40;;;;;;;5.20;100.00;100291.50;5032074;28;20207;-76
2022/01/03 00:29:11;;;;;;;93.60;19.07;;;;;;;5.15;100.00;100280.13;5031817;28;20228;-76
2022/01/03 00:31:39;;;;;;;86.80;18.83;;;;;;;5.19;100.00;100271.75;5044003;28;20230;-75
2022/01/03 00:34:07;;;;;;;66.13;18.93;;;;;;;5.08;100.00;100251.56;5059912;28;20206;-76
2022/01/03 00:36:36;;;;;;;78.80;18.93;;;;;;;4.84;100.00;100224.09;5052310;28;20199;-75
2022/01/03 00:39:07;;;;;;;52.63;19.20;;;;;;;4.87;100.00;100233.63;5071843;28;20612;-75
2022/01/03 00:41:34;;;;;;;58.63;19.37;;;;;;;4.82;100.00;100225.72;5071043;28;20677;-75
2022/01/03 00:44:00;;;;;;;52.37;19.57;;;;;;;4.82;100.00;100233.41;5071899;28;20198;-76
2022/01/03 00:46:29;;;;;;;78.57;21.53;;;;;;;4.62;100.00;100184.66;5069831;28;20206;-76
2022/01/03 00:48:56;;;;;;;113.40;22.83;;;;;;;4.75;100.00;100218.59;5071641;28;20632;-76
2022/01/03 00:51:23;;;;;;;65.17;22.43;;;;;;;4.83;100.00;100217.22;5071491;28;20199;-75
2022/01/03 00:53:51;;;;;;;68.43;21.23;;;;;;;4.77;100.00;100216.97;5070167;28;20201;-76
2022/01/03 00:56:25;;;;;;;76.03;21.97;;;;;;;4.75;100.00;100198.03;5071803;28;20257;-76
2022/01/03 00:58:55;;;;;;;81.90;20.63;;;;;;;4.95;100.00;100206.53;5071380;28;20254;-76
2022/01/03 01:01:24;;;;;;;44.93;19.90;;;;;;;4.91;100.00;100205.56;5052671;28;20206;-75
2022/01/03 01:03:54;;;;;;;164.77;20.17;;;;;;;4.62;100.00;100172.69;5061236;28;20199;-75
2022/01/03 01:06:22;;;;;;;99.47;18.40;;;;;;;4.82;100.00;100212.00;5071599;28;20209;-76
2022/01/03 01:08:55;;;;;;;298.17;23.50;;;;;;;4.76;100.00;100216.91;5071418;28;20248;-75
2022/01/03 01:11:26;;;;;;;270.83;21.10;;;;;;;4.75;100.00;100210.88;5071409;28;20219;-76
2022/01/03 01:13:54;;;;;;;255.83;21.63;;;;;;;4.82;100.00;100218.00;5071163;28;20727;-75
2022/01/03 01:16:22;;;;;;;157.10;19.10;;;;;;;4.85;100.00;100219.84;5060698;28;20558;-75
2022/01/03 01:18:49;;;;;;;83.10;13.00;;;;;;;4.68;100.00;100231.13;5051374;28;20613;-76
2022/01/03 01:21:16;;;;;;;61.47;16.33;;;;;;;4.46;100.00;100191.72;5050876;28;20246;-76
2022/01/03 01:23:44;;;;;;;211.17;19.37;;;;;;;4.66;100.00;100237.88;5050633;28;20203;-76
2022/01/03 01:28:56;;;;;;;177.53;18.00;;;;;;;4.40;100.00;100240.25;5051190;28;20386;-75
2022/01/03 01:31:25;;;;;;;123.43;18.40;;;;;;;4.52;100.00;100227.06;5066867;28;20201;-76
2022/01/03 01:33:55;;;;;;;128.67;17.00;;;;;;;4.55;100.00;100218.59;5070857;28;20198;-76
2022/01/03 01:36:24;;;;;;;126.10;18.63;;;;;;;4.56;100.00;100220.34;5071411;28;20199;-76
2022/01/03 01:38:55;;;;;;;216.40;18.63;;;;;;;4.55;100.00;100210.91;5070843;28;20229;-75
2022/01/03 01:41:27;;;;;;;182.13;17.03;;;;;;;4.67;100.00;100208.84;5071287;28;20203;-75
2022/01/03 01:43:59;;;;;;;104.43;15.83;;;;;;;4.71;100.00;100201.28;5067256;28;20200;-75
2022/01/03 01:46:28;;;;;;;90.73;15.13;;;;;;;4.63;100.00;100186.41;5050963;28;20208;-75
2022/01/03 01:48:55;;;;;;;77.27;15.70;;;;;;;4.46;100.00;100175.44;5051024;28;20222;-75
2022/01/03 01:51:24;;;;;;;102.03;16.53;;;;;;;4.45;100.00;100177.16;5050885;28;20199;-76
2022/01/03 01:53:53;;;;;;;85.23;17.07;;;;;;;4.40;100.00;100167.50;5051679;28;20619;-75
2022/01/03 01:56:22;;;;;;;113.73;15.73;;;;;;;4.52;100.00;100167.13;5061728;28;20202;-76
2022/01/03 01:59:09;;;;;;;77.77;16.37;;;;;;;4.52;100.00;100156.88;5074005;28;20227;-76
2022/01/03 02:01:43;;;;;;;81.80;17.10;;;;;;;4.53;100.00;100153.50;5054442;28;20291;-76
2022/01/03 02:04:30;;;;;;;41.70;14.43;;;;;;;4.47;100.00;100155.00;5054546;28;20203;-75
2022/01/03 02:07:10;;;;;;;49.90;14.43;;;;;;;4.46;100.00;100136.94;5054218;28;20204;-75
2022/01/03 02:09:42;;;;;;;57.50;15.97;;;;;;;4.43;100.00;100145.41;5054123;28;20202;-75
2022/01/03 02:12:16;;;;;;;63.27;17.23;;;;;;;4.41;100.00;100138.47;5054432;28;20203;-76
2022/01/03 02:14:46;;;;;;;44.87;18.07;;;;;;;4.31;100.00;100152.63;5068387;28;20237;-74
2022/01/03 02:17:13;;;;;;;103.50;18.43;;;;;;;4.19;100.00;100157.25;5074244;28;20194;-75
2022/01/03 02:19:41;;;;;;;220.07;19.43;;;;;;;4.11;100.00;100135.53;5074157;28;20234;-75
2022/01/03 02:22:11;;;;;;;177.20;19.33;;;;;;;4.07;100.00;100143.06;5058978;28;20256;-76
2022/01/03 02:24:37;;;;;;;131.97;17.77;;;;;;;4.02;100.00;100127.47;5054125;28;20238;-76
2022/01/03 02:27:05;;;;;;;143.33;17.50;;;;;;;4.14;100.00;100116.84;5054595;28;20724;-75
2022/01/03 02:29:31;;;;;;;119.43;18.47;;;;;;;4.03;100.00;100108.69;5065308;28;20191;-75
2022/01/03 02:31:58;;;;;;;105.17;18.87;;;;;;;3.76;100.00;100071.63;5073644;28;20609;-76
2022/01/03 02:34:29;;;;;;;97.23;17.17;;;;;;;4.16;100.00;100099.81;5074008;28;20218;-75
2022/01/03 02:36:58;;;;;;;90.00;17.83;;;;;;;4.12;100.00;100098.81;5062895;28;20643;-75
2022/01/03 02:39:26;;;;;;;70.97;15.23;;;;;;;3.91;100.00;100075.72;5053642;28;20223;-76
2022/01/03 02:41:53;;;;;;;106.63;15.23;;;;;;;4.13;100.00;100095.44;5053792;28;20203;-76
2022/01/03 02:44:19;;;;;;;109.40;12.93;;;;;;;4.05;100.00;100099.38;5068950;28;20198;-76
2022/01/03 02:46:46;;;;;;;102.63;11.97;;;;;;;3.99;100.00;100106.81;5071102;28;20206;-75
2022/01/03 02:49:13;;;;;;;76.20;12.13;;;;;;;4.03;100.00;100088.19;5053587;28;20192;-76
2022/01/03 02:51:43;;;;;;;124.83;12.17;;;;;;;3.99;100.00;100070.91;5059420;28;20206;-74
2022/01/03 02:54:12;;;;;;;173.37;12.33;;;;;;;3.69;100.00;100026.03;5072422;28;20199;-75
2022/01/03 02:56:39;;;;;;;72.17;12.87;;;;;;;3.80;100.00;100033.38;5072895;28;20194;-77
2022/01/03 02:59:12;;;;;;;87.27;12.57;;;;;;;3.86;100.00;100048.13;5053197;28;20238;-75
2022/01/03 03:01:41;;;;;;;52.43;15.20;;;;;;;3.84;100.00;100067.72;5053494;28;20218;-73
2022/01/03 03:04:08;;;;;;;181.57;14.30;;;;;;;3.68;100.00;100060.19;5053195;28;20199;-75
2022/01/03 03:06:35;;;;;;;213.93;13.90;;;;;;;3.78;100.00;100054.66;5056302;28;20198;-74
2022/01/03 03:09:05;;;;;;;217.83;13.10;;;;;;;3.77;100.00;100043.50;5073278;28;20198;-74
2022/01/03 03:11:33;;;;;;;185.50;13.67;;;;;;;3.74;100.00;100040.81;5072999;28;20675;-74
2022/01/03 03:14:00;;;;;;;63.10;12.03;;;;;;;3.79;100.00;100036.75;5061411;28;20203;-73
2022/01/03 03:16:27;;;;;;;94.13;12.97;;;;;;;3.55;100.00;99993.84;5053158;28;20593;-73
2022/01/03 03:18:54;;;;;;;119.27;11.93;;;;;;;3.69;100.00;100036.31;5052729;28;20230;-76
2022/01/03 03:21:21;;;;;;;41.23;11.90;;;;;;;3.81;100.00;100035.13;5055319;28;20227;-76
2022/01/03 03:23:48;;;;;;;110.50;12.37;;;;;;;3.77;100.00;100053.75;5072137;28;20199;-74
2022/01/03 03:26:15;;;;;;;128.23;11.33;;;;;;;3.63;100.00;100060.00;5061340;28;20200;-74
2022/01/03 03:28:43;;;;;;;186.90;11.77;;;;;;;3.74;100.00;100063.00;5052980;28;20191;-73
2022/01/03 03:31:10;;;;;;;116.10;10.63;;;;;;;3.64;100.00;100074.56;5053075;28;20588;-75
2022/01/03 03:33:38;;;;;;;106.07;11.47;;;;;;;3.22;100.00;99994.19;5052818;28;20204;-74
2022/01/03 03:36:06;;;;;;;195.80;12.43;;;;;;;3.65;100.00;100058.38;5055554;28;20285;-74
2022/01/03 03:38:33;;;;;;;81.60;10.80;;;;;;;3.69;100.00;100056.81;5070694;28;20218;-75
2022/01/03 03:41:01;;;;;;;117.13;11.00;;;;;;;3.64;100.00;100053.19;5056316;28;20265;-74
2022/01/03 03:43:30;;;;;;;190.20;12.77;;;;;;;3.55;100.00;100050.22;5060997;28;20195;-74
2022/01/03 03:45:58;;;;;;;95.60;10.83;;;;;;;3.55;100.00;100039.97;5058748;28;20195;-74
2022/01/03 03:48:25;;;;;;;122.73;12.00;;;;;;;3.52;100.00;100045.88;5072386;28;20194;-75
2022/01/03 03:50:52;;;;;;;74.50;9.63;;;;;;;3.18;100.00;99991.41;5060786;28;20593;-74
2022/01/03 03:53:20;;;;;;;72.27;10.10;;;;;;;3.24;100.00;100027.56;5061982;28;20218;-75
2022/01/03 03:55:48;;;;;;;76.37;10.27;;;;;;;3.28;100.00;100022.63;5066317;28;20203;-75
2022/01/03 03:58:15;;;;;;;23.13;9.33;;;;;;;3.37;100.00;100037.53;5070207;28;20589;-76
2022/01/03 04:00:42;;;;;;;21.07;9.17;;;;;;;3.40;100.00;100041.09;5056033;28;20222;-75
2022/01/03 04:03:10;;;;;;;57.43;10.53;;;;;;;3.39;100.00;100029.06;5053272;28;20191;-75
2022/01/03 04:05:37;;;;;;;324.30;15.73;;;;;;;3.17;100.00;100031.56;5052035;28;20685;-74
2022/01/03 04:08:04;;;;;;;283.73;14.10;;;;;;;3.32;100.00;100037.31;5054787;28;20200;-75
2022/01/03 04:10:31;;;;;;;122.07;11.93;;;;;;;3.35;100.00;100051.97;5052233;28;20199;-75
2022/01/03 04:12:57;;;;;;;95.77;10.53;;;;;;;3.28;100.00;100044.81;5059227;28;20195;-75
2022/01/03 04:15:24;;;;;;;54.38;10.00;;;;;;;3.35;100.00;100052.81;5065635;28;20378;-75
2022/01/03 04:17:51;;;;;;;61.83;10.60;;;;;;;3.47;100.00;100048.22;5056700;28;20203;-74
2022/01/03 04:20:19;;;;;;;30.00;10.33;;;;;;;3.49;100.00;100044.06;5065854;28;20223;-75
2022/01/03 04:22:46;;;;;;;33.80;12.17;;;;;;;3.30;100.00;100035.50;5065390;28;20223;-75
2022/01/03 04:25:14;;;;;;;24.20;9.80;;;;;;;3.20;100.00;100034.25;5050915;28;20200;-74
2022/01/03 04:27:41;;;;;;;59.13;11.93;;;;;;;3.18;100.00;100038.41;5052107;28;20300;-75
2022/01/03 04:30:09;;;;;;;66.63;11.20;;;;;;;3.32;100.00;100055.25;5054944;28;20195;-75
2022/01/03 04:32:36;;;;;;;41.10;12.00;;;;;;;3.34;100.00;100073.25;5067637;28;20199;-75
2022/01/03 04:35:03;;;;;;;68.13;13.00;;;;;;;3.40;100.00;100071.84;5052983;28;20202;-75
2022/01/03 04:37:32;;;;;;;63.20;12.80;;;;;;;3.20;100.00;100018.88;5062977;28;20257;-74
2022/01/03 04:39:58;;;;;;;65.47;14.47;;;;;;;3.03;100.00;99986.53;5051890;28;20232;-78
2022/01/03 04:42:25;;;;;;;122.03;17.53;;;;;;;3.62;100.00;100076.19;5051555;28;20199;-76
2022/01/03 04:44:52;;;;;;;71.47;18.40;;;;;;;3.70;100.00;100061.13;5066959;28;20199;-76
2022/01/03 04:47:19;;;;;;;89.13;17.17;;;;;;;3.67;100.00;100040.50;5070193;28;20260;-76
2022/01/03 04:49:46;;;;;;;121.40;19.67;;;;;;;3.61;100.00;100043.66;5071557;28;20248;-77
2022/01/03 04:52:13;;;;;;;82.77;17.33;;;;;;;3.67;100.00;100043.94;5069460;28;20206;-75
2022/01/03 04:54:41;;;;;;;115.63;17.17;;;;;;;3.70;100.00;100056.00;5049923;28;20206;-75
2022/01/03 04:57:08;;;;;;;81.20;15.47;;;;;;;3.57;100.00;100048.63;5071497;28;20195;-74
2022/01/03 04:59:35;;;;;;;113.87;16.10;;;;;;;3.52;100.00;100065.47;5066976;28;20215;-75
2022/01/03 05:02:03;;;;;;;84.63;16.80;;;;;;;3.49;100.00;100045.75;5049385;28;20596;-75
2022/01/03 05:04:30;;;;;;;79.30;15.23;;;;;;;3.50;100.00;100062.84;5048931;28;21934;-74
2022/01/03 05:06:58;;;;;;;133.63;10.43;;;;;;;3.10;100.00;100029.53;5050386;28;20199;-74
2022/01/03 05:09:24;;;;;;;129.83;21.43;;;;;;;2.99;100.00;100053.81;5054368;28;20219;-75
2022/01/03 05:11:53;;;;;;;173.50;18.87;;;;;;;3.05;100.00;100036.13;5050635;28;20206;-75
2022/01/03 05:14:19;;;;;;;58.20;15.87;;;;;;;3.15;100.00;100002.41;5067521;28;20199;-73
2022/01/03 05:16:46;;;;;;;68.00;14.10;;;;;;;3.26;100.00;100041.31;5052685;28;20272;-75
2022/01/03 05:19:13;;;;;;;71.07;12.97;;;;;;;3.11;100.00;100008.22;5051059;28;20226;-74
2022/01/03 05:21:40;;;;;;;34.47;11.03;;;;;;;3.39;100.00;100035.88;5051314;28;20262;-74
2022/01/03 05:24:07;;;;;;;137.23;10.33;;;;;;;3.39;100.00;100048.69;5058268;28;20253;-75
2022/01/03 05:26:34;;;;;;;149.13;12.90;;;;;;;3.41;100.00;100036.84;5070884;28;20681;-74
2022/01/03 05:29:02;;;;;;;150.43;12.50;;;;;;;3.16;100.00;100039.16;5074499;28;20693;-74
2022/01/03 05:31:29;;;;;;;46.27;11.43;;;;;;;3.39;100.00;100039.31;5074815;28;20267;-75
2022/01/03 05:33:56;;;;;;;97.80;10.97;;;;;;;3.44;100.00;100037.84;5054073;28;20642;-76
2022/01/03 05:36:22;;;;;;;55.83;10.03;;;;;;;3.33;100.00;100005.75;5055832;28;20204;-74
2022/01/03 05:38:49;;;;;;;67.50;8.60;;;;;;;3.24;100.00;100035.25;5054620;28;20200;-74
2022/01/03 05:41:16;;;;;;;46.57;8.17;;;;;;;3.37;100.00;100040.97;5058041;28;20207;-75
2022/01/03 05:43:43;;;;;;;92.00;12.20;;;;;;;3.30;100.00;100028.69;5055922;28;20643;-74
2022/01/03 05:46:12;;;;;;;120.73;13.10;;;;;;;3.27;100.00;100035.38;5057069;28;20678;-75
2022/01/03 05:48:38;;;;;;;224.10;12.63;;;;;;;3.24;100.00;100030.13;5060526;28;20202;-75
2022/01/03 05:51:05;;;;;;;53.70;9.77;;;;;;;3.34;100.00;100019.47;5055251;28;20200;-74
2022/01/03 05:53:32;;;;;;;43.17;16.70;;;;;;;3.42;100.00;100016.38;5053581;28;20203;-75
2022/01/03 05:55:59;;;;;;;154.93;13.30;;;;;;;3.40;100.00;100015.47;5054945;28;20674;-75
2022/01/03 05:58:26;;;;;;;68.53;11.33;;;;;;;3.46;100.00;100027.69;5054476;28;20192;-74
2022/01/03 06:00:53;;;;;;;59.57;11.33;;;;;;;3.15;100.00;100022.91;5052424;28;20235;-76
2022/01/03 06:03:23;;;;;;;145.00;12.07;;;;;;;3.27;100.00;100030.25;5054517;28;20199;-75
2022/01/03 06:08:46;;;;;;;53.57;13.30;;;;;;;3.07;100.00;100008.88;4991651;28;20582;-74
2022/01/03 06:11:13;;;;;;;27.30;11.17;;;;;;;3.24;100.00;100022.44;5039509;28;20257;-73
2022/01/03 06:13:40;;;;;;;59.40;8.60;;;;;;;3.19;100.00;100019.69;5053615;28;20196;-74
2022/01/03 06:16:07;;;;;;;29.03;8.63;;;;;;;3.20;100.00;100018.88;5058919;28;20195;-73
2022/01/03 06:18:35;;;;;;;39.83;12.00;;;;;;;3.15;100.00;100028.03;5073780;28;20199;-74
2022/01/03 06:21:02;;;;;;;22.53;11.90;;;;;;;3.13;100.00;100024.53;5073429;28;20319;-75
2022/01/03 06:23:29;;;;;;;38.37;12.23;;;;;;;3.17;100.00;100020.44;5073171;28;20202;-75
2022/01/03 06:25:56;;;;;;;33.13;14.60;;;;;;;3.19;100.00;100019.69;5073830;28;20194;-75
2022/01/03 06:28:23;;;;;;;49.87;18.80;;;;;;;3.21;100.00;100032.56;5073675;28;20285;-74
2022/01/03 06:30:49;;;;;;;46.40;17.73;;;;;;;3.26;100.00;100031.06;5071334;28;20204;-75
2022/01/03 06:33:16;;;;;;;53.97;24.17;;;;;;;3.04;100.00;100039.50;5053904;28;20642;-76
2022/01/03 06:35:44;;;;;;;52.67;26.77;;;;;;;3.30;100.00;100033.81;5054687;28;20547;-76
2022/01/03 06:38:11;;;;;;;134.73;60.87;;;;;;;3.31;100.00;100024.47;5049028;28;20556;-75
2022/01/03 06:40:38;;;;;;;116.67;52.13;;;;;;;3.53;100.00;100026.25;5054133;28;20772;-74
2022/01/03 06:43:05;;;;;;;97.47;46.60;;;;;;;3.50;100.00;100020.16;5071779;28;20209;-73
2022/01/03 06:45:32;;;;;;;128.90;68.33;;;;;;;3.74;100.00;100006.63;5072578;28;20199;-74
2022/01/03 06:47:59;;;;;;;129.97;63.57;;;;;;;3.93;100.00;100029.59;5053398;28;20670;-72
2022/01/03 06:50:28;;;;;;;132.10;57.93;;;;;;;4.26;100.00;100025.81;5036590;28;20223;-73
2022/01/03 06:52:56;;;;;;;65.87;30.27;;;;;;;4.27;100.00;100022.44;5052741;28;20200;-75
2022/01/03 06:55:23;;;;;;;48.47;25.20;;;;;;;4.14;100.00;100025.31;5051753;28;20587;-75
2022/01/03 06:57:51;;;;;;;39.80;21.07;;;;;;;4.11;100.00;100024.31;5041818;28;20235;-72
2022/01/03 07:00:18;;;;;;;42.60;21.50;;;;;;;3.85;100.00;100018.19;5037330;28;21152;-71
2022/01/03 07:02:45;;;;;;;39.03;16.40;;;;;;;4.00;100.00;100023.91;5039194;28;20207;-72
2022/01/03 07:05:13;;;;;;;31.90;15.63;;;;;;;3.96;100.00;100017.78;5061528;28;20187;-74
2022/01/03 07:07:40;;;;;;;25.97;14.60;;;;;;;3.96;100.00;100020.34;5069941;28;20198;-72
2022/01/03 07:10:10;;;;;;;74.70;27.10;;;;;;;3.91;100.00;100015.84;5073300;28;20642;-72
2022/01/03 07:12:37;;;;;;;334.50;81.70;;;;;;;3.63;100.00;100011.31;5071445;28;20256;-72
2022/01/03 07:20:33;;;;;;;22.50;12.53;;;;;;;3.98;100.00;100017.84;5071807;28;20230;-73
2022/01/03 07:23:01;;;;;;;164.27;59.27;;;;;;;4.11;100.00;100020.06;5052774;28;20206;-72
2022/01/03 07:25:29;;;;;;;37.53;19.23;;;;;;;4.20;100.00;100014.44;5051996;28;20290;-73
2022/01/03 07:27:56;;;;;;;28.13;15.03;;;;;;;4.34;100.00;100006.47;5036663;28;20329;-73
2022/01/03 07:30:22;;;;;;;22.00;11.43;;;;;;;4.18;100.00;99975.00;5042434;28;20287;-74
2022/01/03 07:32:50;;;;;;;16.63;9.47;;;;;;;4.23;100.00;100005.19;5052181;28;20204;-72
2022/01/03 07:35:17;;;;;;;13.83;9.43;;;;;;;4.40;100.00;100013.50;5051952;28;20232;-72
2022/01/03 07:37:44;;;;;;;14.83;9.53;;;;;;;4.50;100.00;100006.22;5053551;28;20207;-72
2022/01/03 07:40:11;;;;;;;15.13;9.77;;;;;;;4.42;100.00;100010.16;5037177;28;20231;-73
2022/01/03 07:42:40;;;;;;;144.93;46.93;;;;;;;4.52;100.00;100000.28;5051572;28;20222;-71
2022/01/03 07:45:08;;;;;;;60.27;26.70;;;;;;;4.69;100.00;100000.06;5037342;28;20752;-72
2022/01/03 07:47:35;;;;;;;35.57;18.00;;;;;;;4.80;100.00;99979.91;5046532;28;20203;-73
2022/01/03 07:50:02;;;;;;;40.10;20.70;;;;;;;4.87;100.00;99959.66;5044680;28;20191;-72
2022/01/03 07:52:29;;;;;;;25.77;16.27;;;;;;;5.24;100.00;99984.06;5050443;28;20195;-74
2022/01/03 07:54:55;;;;;;;22.43;13.63;;;;;;;5.39;100.00;99969.13;5040309;28;20202;-73
2022/01/03 07:57:22;;;;;;;19.97;13.50;;;;;;;5.64;100.00;99965.69;5040014;28;20258;-73
2022/01/03 07:59:50;;;;;;;25.33;13.53;;;;;;;5.74;100.00;99937.72;5036351;28;21501;-73
2022/01/03 08:02:18;;;;;;;22.30;12.87;;;;;;;6.39;100.00;99962.06;5049325;28;20206;-74
2022/01/03 08:04:45;;;;;;;41.97;12.17;;;;;;;6.96;100.00;99966.31;5051683;28;20199;-73
2022/01/03 08:07:12;;;;;;;37.57;14.00;;;;;;;7.61;100.00;99968.84;5051515;28;20206;-72
2022/01/03 08:09:39;;;;;;;34.70;10.50;;;;;;;8.99;100.00;99978.00;5037839;28;20200;-73
2022/01/03 08:12:07;;;;;;;42.40;11.30;;;;;;;9.76;100.00;99986.31;5039929;28;20219;-74
2022/01/03 08:14:34;;;;;;;183.17;37.20;;;;;;;10.30;100.00;100007.94;5051051;28;20682;-74
2022/01/03 08:17:02;;;;;;;39.57;11.73;;;;;;;10.66;100.00;100004.13;5051565;28;20226;-76
2022/01/03 08:19:29;;;;;;;62.37;18.03;;;;;;;11.03;100.00;99985.56;5052173;28;20265;-75
2022/01/03 08:21:56;;;;;;;35.83;10.30;;;;;;;11.47;100.00;100005.94;5042367;28;20289;-74
2022/01/03 08:24:23;;;;;;;11.33;4.43;;;;;;;11.68;100.00;100000.94;5034281;28;20206;-73
2022/01/03 08:26:50;;;;;;;15.90;7.60;;;;;;;11.73;100.00;99996.72;5032051;28;20200;-74
2022/01/03 08:29:18;;;;;;;34.08;10.10;;;;;;;11.72;100.00;99987.16;5032087;28;20679;-74
2022/01/03 08:31:45;;;;;;;13.75;6.95;;;;;;;11.78;100.00;100008.00;5049703;28;20207;-74
2022/01/03 08:34:13;;;;;;;14.15;6.63;;;;;;;11.77;100.00;100011.47;5060459;28;20256;-74
2022/01/03 08:36:40;;;;;;;9.27;4.65;;;;;;;11.82;100.00;100005.44;5069689;28;20601;-74
2022/01/03 08:39:09;;;;;;;40.13;19.70;;;;;;;11.88;100.00;99992.50;5067306;28;20203;-74
2022/01/03 08:41:36;;;;;;;12.32;7.20;;;;;;;12.00;100.00;99998.66;5068134;28;20230;-74
2022/01/03 08:44:03;;;;;;;23.83;9.88;;;;;;;12.03;100.00;100011.66;5069962;28;20203;-73
2022/01/03 08:46:30;;;;;;;12.18;7.18;;;;;;;12.07;100.00;100013.44;5051935;28;20204;-73
2022/01/03 08:48:57;;;;;;;10.52;6.35;;;;;;;12.04;100.00;100010.81;5051169;28;20211;-73
2022/01/03 08:51:25;;;;;;;7.18;5.63;;;;;;;12.16;100.00;100008.31;5051525;28;20199;-74
2022/01/03 08:53:52;;;;;;;11.93;6.88;;;;;;;12.27;100.00;100002.31;5063889;28;20234;-74
2022/01/03 08:56:19;;;;;;;12.07;7.15;;;;;;;12.30;100.00;100001.50;5057272;28;20627;-73
2022/01/03 08:58:46;;;;;;;6.28;3.03;;;;;;;12.40;100.00;100003.28;5047901;28;20200;-72
2022/01/03 09:01:13;;;;;;;8.07;4.72;;;;;;;12.54;100.00;99998.16;5033429;28;20223;-74
2022/01/03 09:03:40;;;;;;;8.18;5.32;;;;;;;12.72;100.00;99995.66;5044705;28;20670;-72
2022/01/03 09:06:07;;;;;;;9.50;6.03;;;;;;;12.86;100.00;99999.19;5055400;28;20568;-73
2022/01/03 09:08:35;;;;;;;5.80;3.63;;;;;;;13.03;100.00;99994.91;5067975;28;20198;-77
2022/01/03 09:11:02;;;;;;;3.90;3.60;;;;;;;13.10;100.00;99983.69;5075555;28;20203;-74
2022/01/03 09:13:28;;;;;;;4.57;3.88;;;;;;;13.17;100.00;99997.59;5076598;28;20595;-73
2022/01/03 09:15:56;;;;;;;9.50;5.43;;;;;;;13.27;100.00;99981.16;5065471;28;20203;-74
2022/01/03 09:18:25;;;;;;;9.32;4.80;;;;;;;13.40;100.00;99991.59;5055354;28;20256;-76
2022/01/03 09:20:51;;;;;;;5.45;3.90;;;;;;;13.49;100.00;99987.25;5054669;28;20227;-72
2022/01/03 09:23:23;;;;;;;11.50;5.65;;;;;;;13.72;100.00;99982.97;5054087;28;20206;-75
2022/01/03 09:28:56;;;;;;;4.75;3.88;;;;;;;14.01;98.88;99980.34;5052735;28;20214;-74
2022/01/03 09:31:26;;;;;;;8.63;5.20;;;;;;;14.09;97.78;99984.69;5054048;28;20200;-76
2022/01/03 09:33:55;;;;;;;13.98;7.38;;;;;;;14.08;96.82;99977.75;5054889;28;20234;-75
2022/01/03 09:36:22;;;;;;;9.70;6.00;;;;;;;14.10;99.17;99969.91;5072293;28;20209;-73
2022/01/03 09:38:49;;;;;;;12.85;6.30;;;;;;;14.16;95.38;99978.59;5074893;28;20199;-72
2022/01/03 09:41:21;;;;;;;33.25;15.82;;;;;;;14.25;97.40;99973.38;5059995;28;20215;-75
2022/01/03 09:43:51;;;;;;;4.72;3.50;;;;;;;14.25;92.45;99970.75;5054948;28;20212;-74
2022/01/03 09:46:22;;;;;;;7.30;3.28;;;;;;;14.34;91.00;99964.69;5054573;28;20207;-73
2022/01/03 09:48:52;;;;;;;3.97;3.15;;;;;;;14.36;92.73;99971.66;5054673;28;20200;-73
2022/01/03 09:51:21;;;;;;;6.35;3.72;;;;;;;14.36;90.75;99961.22;5054247;28;20255;-73
2022/01/03 09:53:50;;;;;;;9.15;5.05;;;;;;;14.44;90.85;99960.31;5062225;28;20277;-74
2022/01/03 09:56:18;;;;;;;4.60;4.03;;;;;;;14.45;89.90;99951.63;5054338;28;20214;-77
2022/01/03 09:58:46;;;;;;;7.15;4.07;;;;;;;14.58;88.08;99959.41;5055484;28;20593;-73
2022/01/03 10:01:13;;;;;;;4.55;4.13;;;;;;;14.40;87.07;99917.72;5053461;28;20223;-72
2022/01/03 10:03:47;;;;;;;4.22;3.70;;;;;;;14.60;84.75;99941.13;5053034;28;20204;-71
2022/01/03 10:06:14;;;;;;;4.90;4.03;;;;;;;14.75;84.46;99967.19;5038410;28;20200;-72
2022/01/03 10:08:41;;;;;;;4.82;4.07;;;;;;;14.63;85.34;99946.34;5033994;28;20196;-72
2022/01/03 10:11:08;;;;;;;4.20;2.65;;;;;;;14.68;84.07;99965.47;5033963;28;20204;-72
2022/01/03 10:13:36;;;;;;;3.67;2.70;;;;;;;14.70;85.15;99948.03;5043809;28;20727;-72
2022/01/03 10:16:04;;;;;;;6.50;2.92;;;;;;;14.64;83.73;99954.16;5053803;28;20203;-76
2022/01/03 10:18:31;;;;;;;5.28;3.50;;;;;;;14.58;83.12;99927.22;5069969;28;20202;-74
2022/01/03 10:20:58;;;;;;;4.10;3.28;;;;;;;14.53;83.78;99923.75;5072843;28;20230;-74
2022/01/03 10:23:25;;;;;;;7.25;3.80;;;;;;;14.44;84.20;99913.38;5071212;28;20199;-72
2022/01/03 10:25:52;;;;;;;6.68;3.42;;;;;;;14.51;84.42;99918.56;5063724;28;20203;-74
2022/01/03 10:28:23;;;;;;;7.95;4.25;;;;;;;14.53;85.86;99910.72;5074106;28;20332;-72
2022/01/03 10:30:53;;;;;;;4.38;3.38;;;;;;;14.50;85.46;99897.69;5073732;28;20230;-72
2022/01/03 10:33:21;;;;;;;6.60;2.95;;;;;;;14.50;85.61;99902.91;5067030;28;20199;-75
2022/01/03 10:35:49;;;;;;;5.35;3.60;;;;;;;14.55;84.69;99903.78;5050198;28;20571;-72
2022/01/03 10:38:32;;;;;;;4.05;2.67;;;;;;;14.63;84.42;99902.84;5053197;28;20727;-73
2022/01/03 10:41:12;;;;;;;2.97;2.78;;;;;;;14.69;84.40;99895.00;5053620;28;20234;-74
2022/01/03 10:43:39;;;;;;;3.92;3.40;;;;;;;14.75;85.96;99886.28;5068781;28;20302;-73
2022/01/03 10:46:20;;;;;;;6.70;3.55;;;;;;;14.86;85.09;99880.13;5072349;28;20571;-73
2022/01/03 10:48:47;;;;;;;5.47;3.80;;;;;;;14.91;83.15;99884.47;5051899;28;20199;-73
2022/01/03 10:51:21;;;;;;;5.32;3.38;;;;;;;14.93;80.78;99888.78;5052448;28;20192;-74
2022/01/03 10:53:50;;;;;;;6.55;4.00;;;;;;;14.89;81.61;99884.44;5051039;28;20209;-72
2022/01/03 10:56:32;;;;;;;4.75;3.47;;;;;;;14.82;80.53;99878.41;5052729;28;20203;-74
2022/01/03 10:59:01;;;;;;;5.32;3.20;;;;;;;14.69;80.65;99883.69;5052825;28;20199;-73
2022/01/03 11:01:31;;;;;;;7.50;3.72;;;;;;;14.73;81.26;99875.81;5052572;28;20224;-72
2022/01/03 11:04:00;;;;;;;6.15;3.25;;;;;;;14.72;82.85;99873.25;5052653;28;20636;-72
2022/01/03 11:06:46;;;;;;;5.60;3.50;;;;;;;14.58;85.18;99875.91;5053254;28;20202;-72
2022/01/03 11:12:17;;;;;;;5.75;3.35;;;;;;;14.75;84.88;99870.63;5052960;28;20190;-72
2022/01/03 11:14:44;;;;;;;5.47;4.55;;;;;;;14.77;84.14;99868.84;5053144;28;20203;-73
2022/01/03 11:17:28;;;;;;;5.60;3.72;;;;;;;14.71;84.13;99850.63;5053224;28;20594;-76
2022/01/03 11:19:57;;;;;;;8.35;4.10;;;;;;;14.42;84.70;99813.38;5050041;28;20223;-74
2022/01/03 11:22:42;;;;;;;4.55;3.13;;;;;;;14.84;84.01;99867.94;5052649;28;20235;-75
2022/01/03 11:25:10;;;;;;;4.07;3.78;;;;;;;14.91;83.84;99872.25;5051706;28;20249;-75
2022/01/03 11:27:40;;;;;;;5.50;3.67;;;;;;;15.00;82.50;99871.34;5053091;28;20203;-74
2022/01/03 11:30:10;;;;;;;8.85;4.45;;;;;;;15.12;81.66;99859.09;5053548;28;20538;-74
2022/01/03 11:32:42;;;;;;;8.30;3.38;;;;;;;15.15;81.48;99848.59;5052795;28;20666;-73
2022/01/03 11:35:10;;;;;;;8.07;4.72;;;;;;;15.29;80.02;99854.59;5052917;28;20210;-74